CheckWX is a tool to help pilots better visualize weather data.  It is not intended as a substitute for an official pre-flight weather briefing.

05:39:58 UTC

CYOD TAF
CFB Cold Lake Airport
Cold Lake, Canada
TAF CYOD 222330Z 2300/2324 VRB03KT P6SM SCT040 BKN230 BECMG 2300/2302 FEW230 FM230800 VRB03KT P6SM FEW040 PROB30 2308/2315 1/2SM FG VV001 FM231700 15010KT P6SM BKN080 RMK NXT FCST BY 230600Z

Aug-23@
00:00 UTC

Aug-23 @ 00:00 UTC

Aug-24@
00:00 UTC

Aug-24 @ 00:00 UTC

TAF CYOD 222330Z 2300/2324 VRB03KT P6SM SCT040 BKN230
Wind
  • Variable at 3 KTS
Cloud Levels
  • Scattered at 4,000' AGL
  • Broken at 23,000' AGL

Aug-23@
00:00 UTC

Aug-23 @ 00:00 UTC

Aug-23@
08:00 UTC

Aug-23 @ 08:00 UTC

BECMG 2300/2302 FEW230

Becoming

Becoming Conditions expected by Fri, Aug 23, 2019 @ 02:00 UTC

Wind
  • Variable at 3 KTS
Cloud Levels
  • Few at 23,000' AGL

Aug-23@
08:00 UTC

Aug-23 @ 08:00 UTC

Aug-23@
15:00 UTC

Aug-23 @ 15:00 UTC

PROB30 2308/2315 1/2SM FG VV001

Probable - 30% Likelihood

Probable - 30% Likelihood during this time.

Conditions
Fog
Cloud Levels
  • Vertical visibility at 100' AGL

Aug-23@
08:00 UTC

Aug-23 @ 08:00 UTC

Aug-23@
17:00 UTC

Aug-23 @ 17:00 UTC

FM230800 VRB03KT P6SM FEW040

From

From Standard forecast or significant change

Wind
  • Variable at 3 KTS
Cloud Levels
  • Few at 4,000' AGL

Aug-23@
17:00 UTC

Aug-23 @ 17:00 UTC

Aug-24@
00:00 UTC

Aug-24 @ 00:00 UTC

FM231700 15010KT P6SM BKN080 RMK NXT FCST BY 230600Z

From

From Standard forecast or significant change

Wind
  • 150° at 10 KTS
Cloud Levels
  • Broken at 8,000' AGL